sensor_id;sensor_type;location;lat;lon;timestamp;pressure;altitude;pressure_sealevel;temperature;humidity
26563;BME280;14217;50.986;5.826;2024-02-23T00:01:26;98396.34;;;19.18;46.45
26563;BME280;14217;50.986;5.826;2024-02-23T00:06:28;98409.63;;;19.18;46.29
26563;BME280;14217;50.986;5.826;2024-02-23T00:11:30;98413.28;;;19.17;46.16
26563;BME280;14217;50.986;5.826;2024-02-23T00:16:40;98423.88;;;19.17;46.33
26563;BME280;14217;50.986;5.826;2024-02-23T00:21:42;98421.34;;;19.15;46.38
26563;BME280;14217;50.986;5.826;2024-02-23T00:26:44;98426.78;;;19.14;46.15
26563;BME280;14217;50.986;5.826;2024-02-23T00:31:48;98436.75;;;19.21;46.18
26563;BME280;14217;50.986;5.826;2024-02-23T00:36:50;98446.78;;;19.18;46.17
26563;BME280;14217;50.986;5.826;2024-02-23T00:41:52;98449.13;;;19.11;46.00
26563;BME280;14217;50.986;5.826;2024-02-23T00:46:54;98440.22;;;19.12;45.83
26563;BME280;14217;50.986;5.826;2024-02-23T00:51:56;98466.03;;;19.10;45.85
26563;BME280;14217;50.986;5.826;2024-02-23T00:56:59;98473.00;;;19.11;46.11
26563;BME280;14217;50.986;5.826;2024-02-23T01:02:01;98489.22;;;19.08;45.87
26563;BME280;14217;50.986;5.826;2024-02-23T01:07:03;98500.38;;;19.12;45.97
26563;BME280;14217;50.986;5.826;2024-02-23T01:12:05;98504.59;;;19.14;45.62
26563;BME280;14217;50.986;5.826;2024-02-23T01:17:08;98522.47;;;19.12;45.85
26563;BME280;14217;50.986;5.826;2024-02-23T01:22:10;98527.19;;;19.08;45.63
26563;BME280;14217;50.986;5.826;2024-02-23T01:27:12;98522.13;;;19.05;45.64
26563;BME280;14217;50.986;5.826;2024-02-23T01:32:14;98528.03;;;19.09;45.65
26563;BME280;14217;50.986;5.826;2024-02-23T01:37:16;98522.72;;;19.09;45.68
26563;BME280;14217;50.986;5.826;2024-02-23T01:42:19;98535.66;;;19.02;45.82
26563;BME280;14217;50.986;5.826;2024-02-23T01:47:21;98533.00;;;19.02;45.66
26563;BME280;14217;50.986;5.826;2024-02-23T01:52:23;98530.34;;;19.02;45.59
26563;BME280;14217;50.986;5.826;2024-02-23T01:57:25;98531.06;;;19.04;45.60
26563;BME280;14217;50.986;5.826;2024-02-23T02:02:48;98520.84;;;19.00;45.66
26563;BME280;14217;50.986;5.826;2024-02-23T02:07:51;98529.38;;;19.03;45.62
26563;BME280;14217;50.986;5.826;2024-02-23T02:13:02;98517.31;;;18.99;45.75
26563;BME280;14217;50.986;5.826;2024-02-23T02:18:04;98525.06;;;19.02;45.76
26563;BME280;14217;50.986;5.826;2024-02-23T02:23:06;98528.41;;;19.04;45.34
26563;BME280;14217;50.986;5.826;2024-02-23T02:28:09;98534.84;;;19.02;45.42
26563;BME280;14217;50.986;5.826;2024-02-23T02:33:11;98537.47;;;19.02;45.52
26563;BME280;14217;50.986;5.826;2024-02-23T02:38:13;98528.09;;;18.98;45.38
26563;BME280;14217;50.986;5.826;2024-02-23T02:43:15;98540.13;;;19.02;45.66
26563;BME280;14217;50.986;5.826;2024-02-23T02:48:18;98546.41;;;19.01;45.28
26563;BME280;14217;50.986;5.826;2024-02-23T02:53:20;98540.84;;;19.04;45.42
26563;BME280;14217;50.986;5.826;2024-02-23T02:58:23;98542.41;;;19.06;45.09
26563;BME280;14217;50.986;5.826;2024-02-23T03:03:25;98548.81;;;19.04;45.38
26563;BME280;14217;50.986;5.826;2024-02-23T03:08:27;98548.09;;;19.02;45.20
26563;BME280;14217;50.986;5.826;2024-02-23T03:13:29;98550.88;;;19.00;45.49
26563;BME280;14217;50.986;5.826;2024-02-23T03:18:33;98550.59;;;19.03;45.03
26563;BME280;14217;50.986;5.826;2024-02-23T03:23:38;98552.69;;;19.00;45.21
26563;BME280;14217;50.986;5.826;2024-02-23T03:28:40;98561.59;;;18.99;45.36
26563;BME280;14217;50.986;5.826;2024-02-23T03:33:42;98561.50;;;19.00;44.98
26563;BME280;14217;50.986;5.826;2024-02-23T03:38:44;98568.72;;;18.98;45.09
26563;BME280;14217;50.986;5.826;2024-02-23T03:43:46;98566.19;;;18.97;44.99
26563;BME280;14217;50.986;5.826;2024-02-23T03:48:48;98573.06;;;18.99;45.16
26563;BME280;14217;50.986;5.826;2024-02-23T03:53:51;98567.19;;;18.96;45.21
26563;BME280;14217;50.986;5.826;2024-02-23T03:58:53;98572.34;;;18.97;44.99
26563;BME280;14217;50.986;5.826;2024-02-23T04:03:55;98575.25;;;18.94;45.01
26563;BME280;14217;50.986;5.826;2024-02-23T04:08:57;98580.69;;;18.93;45.37
26563;BME280;14217;50.986;5.826;2024-02-23T04:14:00;98575.13;;;18.96;44.92
26563;BME280;14217;50.986;5.826;2024-02-23T04:19:02;98594.56;;;18.96;44.97
26563;BME280;14217;50.986;5.826;2024-02-23T04:24:05;98587.53;;;18.95;44.93
26563;BME280;14217;50.986;5.826;2024-02-23T04:29:08;98584.53;;;19.00;45.00
26563;BME280;14217;50.986;5.826;2024-02-23T04:34:10;98583.22;;;18.94;45.17
26563;BME280;14217;50.986;5.826;2024-02-23T04:39:12;98575.13;;;18.96;45.23
26563;BME280;14217;50.986;5.826;2024-02-23T04:44:14;98584.66;;;18.98;44.87
26563;BME280;14217;50.986;5.826;2024-02-23T04:49:16;98574.16;;;18.97;44.93
26563;BME280;14217;50.986;5.826;2024-02-23T04:54:19;98579.47;;;18.97;45.21
26563;BME280;14217;50.986;5.826;2024-02-23T04:59:21;98579.59;;;18.95;45.14
26563;BME280;14217;50.986;5.826;2024-02-23T05:04:23;98581.41;;;18.95;45.02
26563;BME280;14217;50.986;5.826;2024-02-23T05:09:25;98581.56;;;18.93;45.03
26563;BME280;14217;50.986;5.826;2024-02-23T05:14:27;98585.16;;;18.92;45.07
26563;BME280;14217;50.986;5.826;2024-02-23T05:19:29;98572.59;;;18.94;45.16
26563;BME280;14217;50.986;5.826;2024-02-23T05:24:31;98575.38;;;18.93;45.22
26563;BME280;14217;50.986;5.826;2024-02-23T05:29:33;98560.44;;;18.92;45.07
26563;BME280;14217;50.986;5.826;2024-02-23T05:34:35;98563.94;;;18.92;44.96
26563;BME280;14217;50.986;5.826;2024-02-23T05:39:38;98556.56;;;18.96;44.61
26563;BME280;14217;50.986;5.826;2024-02-23T05:44:43;98555.59;;;18.97;44.69
26563;BME280;14217;50.986;5.826;2024-02-23T05:49:45;98556.94;;;18.91;44.98
26563;BME280;14217;50.986;5.826;2024-02-23T05:54:48;98548.59;;;18.96;44.73
26563;BME280;14217;50.986;5.826;2024-02-23T05:59:53;98545.94;;;18.96;44.84
26563;BME280;14217;50.986;5.826;2024-02-23T06:04:55;98556.94;;;18.91;44.63
26563;BME280;14217;50.986;5.826;2024-02-23T06:09:57;98550.66;;;18.92;44.62
26563;BME280;14217;50.986;5.826;2024-02-23T06:14:59;98549.09;;;18.89;44.92
26563;BME280;14217;50.986;5.826;2024-02-23T06:20:01;98537.66;;;18.89;44.84
26563;BME280;14217;50.986;5.826;2024-02-23T06:25:07;98528.72;;;18.90;44.65
26563;BME280;14217;50.986;5.826;2024-02-23T06:30:09;98520.03;;;18.88;44.55
26563;BME280;14217;50.986;5.826;2024-02-23T06:35:12;98509.56;;;18.86;44.79
26563;BME280;14217;50.986;5.826;2024-02-23T06:40:15;98516.69;;;18.86;44.55
26563;BME280;14217;50.986;5.826;2024-02-23T06:45:17;98522.81;;;18.86;44.75
26563;BME280;14217;50.986;5.826;2024-02-23T06:50:20;98526.19;;;18.88;44.59
26563;BME280;14217;50.986;5.826;2024-02-23T06:55:23;98530.41;;;18.91;44.49
26563;BME280;14217;50.986;5.826;2024-02-23T07:00:25;98520.75;;;18.90;44.52
26563;BME280;14217;50.986;5.826;2024-02-23T07:05:27;98525.75;;;18.83;44.47
26563;BME280;14217;50.986;5.826;2024-02-23T07:10:29;98515.84;;;18.85;44.50
26563;BME280;14217;50.986;5.826;2024-02-23T07:15:31;98512.34;;;18.85;44.23
26563;BME280;14217;50.986;5.826;2024-02-23T07:20:37;98507.41;;;18.80;44.22
26563;BME280;14217;50.986;5.826;2024-02-23T07:25:40;98514.03;;;18.86;44.32
26563;BME280;14217;50.986;5.826;2024-02-23T07:30:42;98521.88;;;18.87;44.11
26563;BME280;14217;50.986;5.826;2024-02-23T07:35:45;98527.56;;;18.83;44.29
26563;BME280;14217;50.986;5.826;2024-02-23T07:40:47;98530.31;;;18.81;44.20
26563;BME280;14217;50.986;5.826;2024-02-23T07:45:49;98531.75;;;18.85;44.22
26563;BME280;14217;50.986;5.826;2024-02-23T07:50:51;98538.28;;;18.81;44.13
26563;BME280;14217;50.986;5.826;2024-02-23T07:55:53;98537.06;;;18.85;44.31
26563;BME280;14217;50.986;5.826;2024-02-23T08:00:55;98543.31;;;18.84;44.17
26563;BME280;14217;50.986;5.826;2024-02-23T08:05:57;98536.34;;;18.83;44.23
26563;BME280;14217;50.986;5.826;2024-02-23T08:11:04;98533.00;;;18.70;45.56
26563;BME280;14217;50.986;5.826;2024-02-23T08:16:07;98545.03;;;18.85;46.48
26563;BME280;14217;50.986;5.826;2024-02-23T08:21:10;98541.41;;;18.75;46.59
26563;BME280;14217;50.986;5.826;2024-02-23T08:26:12;98539.38;;;18.79;45.90
26563;BME280;14217;50.986;5.826;2024-02-23T08:31:14;98546.25;;;18.81;45.66
26563;BME280;14217;50.986;5.826;2024-02-23T08:36:16;98533.94;;;18.80;45.33
26563;BME280;14217;50.986;5.826;2024-02-23T08:41:18;98531.16;;;18.82;45.21
26563;BME280;14217;50.986;5.826;2024-02-23T08:46:20;98529.19;;;18.52;44.22
26563;BME280;14217;50.986;5.826;2024-02-23T08:51:22;98533.63;;;18.62;44.05
26563;BME280;14217;50.986;5.826;2024-02-23T08:56:24;98532.88;;;18.83;43.71
26563;BME280;14217;50.986;5.826;2024-02-23T09:01:26;98533.63;;;18.95;43.49
26563;BME280;14217;50.986;5.826;2024-02-23T09:06:28;98527.09;;;18.99;43.19
26563;BME280;14217;50.986;5.826;2024-02-23T09:11:31;98524.25;;;18.91;42.11
26563;BME280;14217;50.986;5.826;2024-02-23T09:16:35;98515.38;;;18.69;40.46
26563;BME280;14217;50.986;5.826;2024-02-23T09:21:37;98526.34;;;18.21;41.88
26563;BME280;14217;50.986;5.826;2024-02-23T09:26:39;98517.84;;;18.49;40.27
26563;BME280;14217;50.986;5.826;2024-02-23T09:31:41;98531.25;;;18.25;39.63
26563;BME280;14217;50.986;5.826;2024-02-23T09:36:43;98531.44;;;18.56;39.95
26563;BME280;14217;50.986;5.826;2024-02-23T09:41:54;98529.47;;;18.69;40.03
26563;BME280;14217;50.986;5.826;2024-02-23T09:46:56;98534.44;;;18.74;39.98
26563;BME280;14217;50.986;5.826;2024-02-23T09:51:58;98536.34;;;18.83;39.96
26563;BME280;14217;50.986;5.826;2024-02-23T09:57:02;98531.16;;;18.82;40.42
26563;BME280;14217;50.986;5.826;2024-02-23T10:02:09;98540.66;;;18.84;40.28
26563;BME280;14217;50.986;5.826;2024-02-23T10:07:14;98543.59;;;18.81;40.57
26563;BME280;14217;50.986;5.826;2024-02-23T10:12:20;98531.75;;;18.85;40.34
26563;BME280;14217;50.986;5.826;2024-02-23T10:17:22;98546.84;;;18.85;40.52
26563;BME280;14217;50.986;5.826;2024-02-23T10:22:25;98542.38;;;18.85;39.80
26563;BME280;14217;50.986;5.826;2024-02-23T10:27:27;98562.63;;;18.75;39.30
26563;BME280;14217;50.986;5.826;2024-02-23T10:32:29;98554.78;;;18.74;39.40
26563;BME280;14217;50.986;5.826;2024-02-23T10:37:34;98560.22;;;18.83;39.48
26563;BME280;14217;50.986;5.826;2024-02-23T10:42:38;98576.38;;;18.80;39.71
26563;BME280;14217;50.986;5.826;2024-02-23T10:47:40;98588.41;;;18.84;39.52
26563;BME280;14217;50.986;5.826;2024-02-23T10:52:43;98599.91;;;18.85;39.86
26563;BME280;14217;50.986;5.826;2024-02-23T10:57:45;98599.53;;;18.89;39.84
26563;BME280;14217;50.986;5.826;2024-02-23T11:02:51;98596.88;;;18.89;39.67
26563;BME280;14217;50.986;5.826;2024-02-23T11:07:58;98603.38;;;18.85;39.93
26563;BME280;14217;50.986;5.826;2024-02-23T11:13:00;98599.91;;;18.85;40.01
26563;BME280;14217;50.986;5.826;2024-02-23T11:18:03;98621.69;;;18.88;40.16
26563;BME280;14217;50.986;5.826;2024-02-23T11:23:13;98604.22;;;18.86;40.06
26563;BME280;14217;50.986;5.826;2024-02-23T11:28:24;98613.03;;;18.86;39.93
26563;BME280;14217;50.986;5.826;2024-02-23T11:33:26;98631.13;;;18.81;40.40
26563;BME280;14217;50.986;5.826;2024-02-23T11:38:29;98618.31;;;18.86;40.23
26563;BME280;14217;50.986;5.826;2024-02-23T11:43:34;98631.84;;;18.83;40.17
26563;BME280;14217;50.986;5.826;2024-02-23T11:48:37;98628.94;;;18.86;40.14
26563;BME280;14217;50.986;5.826;2024-02-23T11:53:39;98619.91;;;18.89;40.06
26563;BME280;14217;50.986;5.826;2024-02-23T11:58:41;98620.88;;;18.88;40.08
26563;BME280;14217;50.986;5.826;2024-02-23T12:03:44;98614.72;;;18.87;40.45
26563;BME280;14217;50.986;5.826;2024-02-23T12:08:46;98618.81;;;18.92;40.08
26563;BME280;14217;50.986;5.826;2024-02-23T12:13:48;98611.97;;;18.66;40.09
26563;BME280;14217;50.986;5.826;2024-02-23T12:18:55;98619.53;;;18.71;40.11
26563;BME280;14217;50.986;5.826;2024-02-23T12:23:57;98607.25;;;18.81;40.13
26563;BME280;14217;50.986;5.826;2024-02-23T12:29:01;98625.81;;;18.81;39.86
26563;BME280;14217;50.986;5.826;2024-02-23T12:34:04;98609.41;;;18.87;40.02
26563;BME280;14217;50.986;5.826;2024-02-23T12:39:07;98609.41;;;18.87;40.09
26563;BME280;14217;50.986;5.826;2024-02-23T12:44:09;98611.34;;;18.85;40.27
26563;BME280;14217;50.986;5.826;2024-02-23T12:49:12;98606.28;;;18.82;40.10
26563;BME280;14217;50.986;5.826;2024-02-23T12:54:14;98605.22;;;18.85;40.26
26563;BME280;14217;50.986;5.826;2024-02-23T12:59:17;98611.34;;;18.85;40.44
26563;BME280;14217;50.986;5.826;2024-02-23T13:04:19;98609.66;;;18.84;40.43
26563;BME280;14217;50.986;5.826;2024-02-23T13:09:22;98606.16;;;18.84;40.48
26563;BME280;14217;50.986;5.826;2024-02-23T13:14:24;98604.22;;;18.86;40.26
26563;BME280;14217;50.986;5.826;2024-02-23T13:19:26;98611.34;;;18.85;40.46
26563;BME280;14217;50.986;5.826;2024-02-23T13:24:28;98602.66;;;18.83;40.30
26563;BME280;14217;50.986;5.826;2024-02-23T13:29:31;98596.97;;;18.88;40.54
26563;BME280;14217;50.986;5.826;2024-02-23T13:34:33;98606.75;;;18.87;40.30
26563;BME280;14217;50.986;5.826;2024-02-23T13:39:35;98612.19;;;18.86;40.38
26563;BME280;14217;50.986;5.826;2024-02-23T13:44:37;98622.06;;;18.73;40.20
26563;BME280;14217;50.986;5.826;2024-02-23T13:49:39;98621.72;;;18.66;40.69
26563;BME280;14217;50.986;5.826;2024-02-23T13:54:41;98622.56;;;18.66;40.50
26563;BME280;14217;50.986;5.826;2024-02-23T13:59:44;98627.53;;;18.60;40.70
26563;BME280;14217;50.986;5.826;2024-02-23T14:04:47;98628.59;;;18.68;40.33
26563;BME280;14217;50.986;5.826;2024-02-23T14:09:49;98627.25;;;18.74;39.21
26563;BME280;14217;50.986;5.826;2024-02-23T14:14:52;98622.81;;;18.75;39.56
26563;BME280;14217;50.986;5.826;2024-02-23T14:19:53;98627.75;;;18.79;39.49
26563;BME280;14217;50.986;5.826;2024-02-23T14:24:56;98623.28;;;18.80;39.67
26563;BME280;14217;50.986;5.826;2024-02-23T14:29:58;98622.91;;;18.73;39.90
26563;BME280;14217;50.986;5.826;2024-02-23T14:35:03;98622.44;;;18.79;39.90
26563;BME280;14217;50.986;5.826;2024-02-23T14:40:06;98621.81;;;18.76;39.91
26563;BME280;14217;50.986;5.826;2024-02-23T14:45:08;98615.22;;;18.70;40.17
26563;BME280;14217;50.986;5.826;2024-02-23T14:50:11;98613.84;;;18.76;40.10
26563;BME280;14217;50.986;5.826;2024-02-23T14:55:13;98617.34;;;18.76;40.07
26563;BME280;14217;50.986;5.826;2024-02-23T15:00:15;98613.03;;;18.75;40.10
26563;BME280;14217;50.986;5.826;2024-02-23T15:05:18;98620.00;;;18.76;40.09
26563;BME280;14217;50.986;5.826;2024-02-23T15:10:21;98628.22;;;18.73;40.37
26563;BME280;14217;50.986;5.826;2024-02-23T15:15:23;98625.69;;;18.72;40.38
26563;BME280;14217;50.986;5.826;2024-02-23T15:20:25;98627.13;;;18.76;40.31
26563;BME280;14217;50.986;5.826;2024-02-23T15:25:27;98630.16;;;18.71;40.46
26563;BME280;14217;50.986;5.826;2024-02-23T15:30:30;98636.44;;;18.70;40.59
26563;BME280;14217;50.986;5.826;2024-02-23T15:35:32;98637.88;;;18.74;40.43
26563;BME280;14217;50.986;5.826;2024-02-23T15:40:36;98630.53;;;18.66;40.70
26563;BME280;14217;50.986;5.826;2024-02-23T15:45:38;98635.84;;;18.66;40.64
26563;BME280;14217;50.986;5.826;2024-02-23T15:50:40;98636.28;;;18.72;40.61
26563;BME280;14217;50.986;5.826;2024-02-23T15:56:03;98630.88;;;18.73;40.56
26563;BME280;14217;50.986;5.826;2024-02-23T16:01:05;98634.72;;;18.69;40.52
26563;BME280;14217;50.986;5.826;2024-02-23T16:06:07;98634.00;;;18.67;40.83
26563;BME280;14217;50.986;5.826;2024-02-23T16:11:10;98650.91;;;18.55;40.51
26563;BME280;14217;50.986;5.826;2024-02-23T16:16:13;98631.97;;;18.59;40.07
26563;BME280;14217;50.986;5.826;2024-02-23T16:21:16;98637.75;;;18.64;40.13
26563;BME280;14217;50.986;5.826;2024-02-23T16:26:18;98634.63;;;18.59;39.62
26563;BME280;14217;50.986;5.826;2024-02-23T16:31:20;98630.81;;;18.41;38.37
26563;BME280;14217;50.986;5.826;2024-02-23T16:36:22;98651.50;;;18.36;39.26
26563;BME280;14217;50.986;5.826;2024-02-23T16:41:24;98644.03;;;18.29;39.49
26563;BME280;14217;50.986;5.826;2024-02-23T16:46:27;98640.78;;;18.37;39.12
26563;BME280;14217;50.986;5.826;2024-02-23T16:51:29;98645.38;;;18.35;39.56
26563;BME280;14217;50.986;5.826;2024-02-23T16:56:31;98641.88;;;18.46;39.62
26563;BME280;14217;50.986;5.826;2024-02-23T17:01:33;98650.44;;;18.49;39.75
26563;BME280;14217;50.986;5.826;2024-02-23T17:06:35;98660.78;;;18.53;39.75
26563;BME280;14217;50.986;5.826;2024-02-23T17:11:37;98657.28;;;18.52;40.00
26563;BME280;14217;50.986;5.826;2024-02-23T17:16:40;98669.34;;;18.56;39.93
26563;BME280;14217;50.986;5.826;2024-02-23T17:21:42;98668.50;;;18.56;40.29
26563;BME280;14217;50.986;5.826;2024-02-23T17:26:44;98674.53;;;18.58;40.09
26563;BME280;14217;50.986;5.826;2024-02-23T17:31:46;98673.56;;;18.59;40.43
26563;BME280;14217;50.986;5.826;2024-02-23T17:36:48;98681.63;;;18.57;40.21
26563;BME280;14217;50.986;5.826;2024-02-23T17:41:50;98679.13;;;18.56;40.47
26563;BME280;14217;50.986;5.826;2024-02-23T17:46:53;98694.31;;;18.54;40.69
26563;BME280;14217;50.986;5.826;2024-02-23T17:51:56;98701.16;;;18.56;40.61
26563;BME280;14217;50.986;5.826;2024-02-23T17:56:58;98723.09;;;18.58;40.81
26563;BME280;14217;50.986;5.826;2024-02-23T18:02:00;98728.06;;;18.52;40.88
26563;BME280;14217;50.986;5.826;2024-02-23T18:07:03;98718.75;;;18.57;40.87
26563;BME280;14217;50.986;5.826;2024-02-23T18:12:06;98721.66;;;18.54;40.74
26563;BME280;14217;50.986;5.826;2024-02-23T18:17:08;98717.09;;;18.56;40.74
26563;BME280;14217;50.986;5.826;2024-02-23T18:22:10;98723.34;;;18.33;40.39
26563;BME280;14217;50.986;5.826;2024-02-23T18:27:12;98728.66;;;18.55;41.21
26563;BME280;14217;50.986;5.826;2024-02-23T18:32:14;98734.31;;;18.51;42.05
26563;BME280;14217;50.986;5.826;2024-02-23T18:37:16;98735.53;;;18.69;41.95
26563;BME280;14217;50.986;5.826;2024-02-23T18:42:18;98726.38;;;18.62;42.21
26563;BME280;14217;50.986;5.826;2024-02-23T18:47:20;98726.25;;;18.41;42.64
26563;BME280;14217;50.986;5.826;2024-02-23T18:52:25;98729.47;;;18.33;43.11
26563;BME280;14217;50.986;5.826;2024-02-23T18:57:27;98739.34;;;18.31;42.89
26563;BME280;14217;50.986;5.826;2024-02-23T19:02:31;98739.34;;;18.31;42.78
26563;BME280;14217;50.986;5.826;2024-02-23T19:07:34;98753.81;;;18.27;42.70
26563;BME280;14217;50.986;5.826;2024-02-23T19:12:36;98741.75;;;18.23;42.76
26563;BME280;14217;50.986;5.826;2024-02-23T19:17:40;98739.09;;;18.23;42.96
26563;BME280;14217;50.986;5.826;2024-02-23T19:22:43;98741.13;;;18.19;42.67
26563;BME280;14217;50.986;5.826;2024-02-23T19:27:45;98737.03;;;18.15;43.07
26563;BME280;14217;50.986;5.826;2024-02-23T19:32:48;98745.47;;;18.09;43.16
26563;BME280;14217;50.986;5.826;2024-02-23T19:37:50;98742.91;;;18.07;42.78
26563;BME280;14217;50.986;5.826;2024-02-23T19:42:52;98738.47;;;18.08;42.79
26563;BME280;14217;50.986;5.826;2024-02-23T19:47:55;98751.44;;;18.00;43.15
26563;BME280;14217;50.986;5.826;2024-02-23T19:52:57;98747.94;;;17.99;43.05
26563;BME280;14217;50.986;5.826;2024-02-23T19:58:00;98737.00;;;18.04;42.95
26563;BME280;14217;50.986;5.826;2024-02-23T20:03:02;98744.56;;;17.97;42.98
26563;BME280;14217;50.986;5.826;2024-02-23T20:08:04;98741.19;;;17.95;43.17
26563;BME280;14217;50.986;5.826;2024-02-23T20:13:07;98746.50;;;17.95;43.20
26563;BME280;14217;50.986;5.826;2024-02-23T20:18:09;98750.94;;;17.95;42.88
26563;BME280;14217;50.986;5.826;2024-02-23T20:23:11;98756.72;;;17.88;43.14
26563;BME280;14217;50.986;5.826;2024-02-23T20:28:13;98755.72;;;17.90;42.99
26563;BME280;14217;50.986;5.826;2024-02-23T20:33:15;98760.31;;;17.87;43.04
26563;BME280;14217;50.986;5.826;2024-02-23T20:38:18;98769.50;;;17.95;43.13
26563;BME280;14217;50.986;5.826;2024-02-23T20:43:20;98776.25;;;17.99;42.77
26563;BME280;14217;50.986;5.826;2024-02-23T20:48:23;98776.38;;;17.97;42.90
26563;BME280;14217;50.986;5.826;2024-02-23T20:53:26;98765.19;;;18.05;42.86
26563;BME280;14217;50.986;5.826;2024-02-23T20:58:28;98779.50;;;18.02;42.65
26563;BME280;14217;50.986;5.826;2024-02-23T21:03:30;98778.44;;;18.05;42.81
26563;BME280;14217;50.986;5.826;2024-02-23T21:08:33;98788.91;;;18.06;42.67
26563;BME280;14217;50.986;5.826;2024-02-23T21:13:35;98789.16;;;18.03;42.59
26563;BME280;14217;50.986;5.826;2024-02-23T21:18:37;98795.03;;;17.96;42.98
26563;BME280;14217;50.986;5.826;2024-02-23T21:23:39;98798.63;;;17.95;42.80
26563;BME280;14217;50.986;5.826;2024-02-23T21:28:42;98794.41;;;17.92;42.95
26563;BME280;14217;50.986;5.826;2024-02-23T21:33:44;98807.03;;;17.88;42.83
26563;BME280;14217;50.986;5.826;2024-02-23T21:38:53;98808.13;;;17.86;43.01
26563;BME280;14217;50.986;5.826;2024-02-23T21:43:55;98810.97;;;17.83;43.24
26563;BME280;14217;50.986;5.826;2024-02-23T21:48:57;98817.75;;;17.87;43.26
26563;BME280;14217;50.986;5.826;2024-02-23T21:54:03;98809.34;;;17.93;43.19
26563;BME280;14217;50.986;5.826;2024-02-23T21:59:06;98807.34;;;18.08;42.83
26563;BME280;14217;50.986;5.826;2024-02-23T22:04:08;98814.13;;;18.12;42.78
26563;BME280;14217;50.986;5.826;2024-02-23T22:09:10;98813.03;;;18.15;43.01
26563;BME280;14217;50.986;5.826;2024-02-23T22:14:12;98820.53;;;18.21;42.85
26563;BME280;14217;50.986;5.826;2024-02-23T22:19:14;98819.78;;;18.19;42.74
26563;BME280;14217;50.986;5.826;2024-02-23T22:24:16;98811.97;;;18.17;42.88
26563;BME280;14217;50.986;5.826;2024-02-23T22:29:18;98810.91;;;18.20;42.71
26563;BME280;14217;50.986;5.826;2024-02-23T22:34:21;98813.31;;;18.23;42.56
26563;BME280;14217;50.986;5.826;2024-02-23T22:39:24;98821.16;;;18.24;42.81
26563;BME280;14217;50.986;5.826;2024-02-23T22:44:26;98817.66;;;18.24;42.68
26563;BME280;14217;50.986;5.826;2024-02-23T22:49:28;98810.44;;;18.26;42.45
26563;BME280;14217;50.986;5.826;2024-02-23T22:54:30;98813.41;;;18.21;42.56
26563;BME280;14217;50.986;5.826;2024-02-23T22:59:32;98818.16;;;18.29;42.41
26563;BME280;14217;50.986;5.826;2024-02-23T23:04:35;98821.78;;;18.28;42.45
26563;BME280;14217;50.986;5.826;2024-02-23T23:09:37;98821.41;;;18.33;42.48
26563;BME280;14217;50.986;5.826;2024-02-23T23:14:39;98817.19;;;18.30;42.72
26563;BME280;14217;50.986;5.826;2024-02-23T23:19:46;98814.03;;;18.25;42.64
26563;BME280;14217;50.986;5.826;2024-02-23T23:24:50;98809.25;;;18.30;42.47
26563;BME280;14217;50.986;5.826;2024-02-23T23:29:52;98813.31;;;18.23;42.70
26563;BME280;14217;50.986;5.826;2024-02-23T23:34:54;98811.03;;;18.29;42.79
26563;BME280;14217;50.986;5.826;2024-02-23T23:39:56;98814.66;;;18.28;42.70
26563;BME280;14217;50.986;5.826;2024-02-23T23:44:58;98818.16;;;18.29;42.66
26563;BME280;14217;50.986;5.826;2024-02-23T23:50:01;98831.50;;;18.27;42.84
26563;BME280;14217;50.986;5.826;2024-02-23T23:55:03;98833.09;;;18.30;42.63
